sensor_id;sensor_type;location;lat;lon;timestamp;pressure;altitude;pressure_sealevel;temperature;humidity
6680;BME280;3376;42.664;23.346;2022-08-16T00:00:29;94143.66;;;20.06;100.00
6680;BME280;3376;42.664;23.346;2022-08-16T00:03:00;94132.75;;;19.98;100.00
6680;BME280;3376;42.664;23.346;2022-08-16T00:05:28;93962.25;;;18.92;100.00
6680;BME280;3376;42.664;23.346;2022-08-16T00:07:55;94146.59;;;20.10;100.00
6680;BME280;3376;42.664;23.346;2022-08-16T00:10:24;94146.03;;;20.08;100.00
6680;BME280;3376;42.664;23.346;2022-08-16T00:12:51;94145.16;;;20.02;100.00
6680;BME280;3376;42.664;23.346;2022-08-16T00:15:22;94146.47;;;20.00;100.00
6680;BME280;3376;42.664;23.346;2022-08-16T00:17:50;94152.22;;;19.97;100.00
6680;BME280;3376;42.664;23.346;2022-08-16T00:20:19;94137.16;;;19.92;100.00
6680;BME280;3376;42.664;23.346;2022-08-16T00:22:48;94143.34;;;20.03;100.00
6680;BME280;3376;42.664;23.346;2022-08-16T00:25:17;94139.69;;;19.87;100.00
6680;BME280;3376;42.664;23.346;2022-08-16T00:27:44;94145.28;;;19.90;100.00
6680;BME280;3376;42.664;23.346;2022-08-16T00:30:12;94122.03;;;19.82;100.00
6680;BME280;3376;42.664;23.346;2022-08-16T00:32:42;94134.69;;;19.85;100.00
6680;BME280;3376;42.664;23.346;2022-08-16T00:35:12;94155.94;;;20.01;100.00
6680;BME280;3376;42.664;23.346;2022-08-16T00:37:41;94112.97;;;19.73;100.00
6680;BME280;3376;42.664;23.346;2022-08-16T00:40:10;94142.44;;;19.75;100.00
6680;BME280;3376;42.664;23.346;2022-08-16T00:42:37;94157.22;;;19.81;100.00
6680;BME280;3376;42.664;23.346;2022-08-16T00:45:08;94141.72;;;19.63;100.00
6680;BME280;3376;42.664;23.346;2022-08-16T00:47:42;94150.59;;;19.57;100.00
6680;BME280;3376;42.664;23.346;2022-08-16T00:50:10;94158.06;;;19.65;100.00
6680;BME280;3376;42.664;23.346;2022-08-16T00:52:38;94164.97;;;19.71;100.00
6680;BME280;3376;42.664;23.346;2022-08-16T00:55:07;94169.91;;;19.68;100.00
6680;BME280;3376;42.664;23.346;2022-08-16T00:57:34;94169.91;;;19.68;100.00
6680;BME280;3376;42.664;23.346;2022-08-16T01:00:04;94167.94;;;19.58;100.00
6680;BME280;3376;42.664;23.346;2022-08-16T01:02:31;94163.84;;;19.51;100.00
6680;BME280;3376;42.664;23.346;2022-08-16T01:04:58;94166.81;;;19.54;100.00
6680;BME280;3376;42.664;23.346;2022-08-16T01:07:25;94169.38;;;19.66;100.00
6680;BME280;3376;42.664;23.346;2022-08-16T01:09:52;94171.28;;;19.70;100.00
6680;BME280;3376;42.664;23.346;2022-08-16T01:12:21;94169.66;;;19.69;100.00
6680;BME280;3376;42.664;23.346;2022-08-16T01:14:52;94176.03;;;19.73;100.00
6680;BME280;3376;42.664;23.346;2022-08-16T01:17:21;94184.09;;;19.83;100.00
6680;BME280;3376;42.664;23.346;2022-08-16T01:19:51;94179.38;;;19.85;100.00
6680;BME280;3376;42.664;23.346;2022-08-16T01:22:39;94182.22;;;20.01;100.00
6680;BME280;3376;42.664;23.346;2022-08-16T01:25:13;94184.22;;;19.93;100.00
6680;BME280;3376;42.664;23.346;2022-08-16T01:27:46;94188.94;;;19.92;100.00
6680;BME280;3376;42.664;23.346;2022-08-16T01:30:17;94183.06;;;19.84;100.00
6680;BME280;3376;42.664;23.346;2022-08-16T01:32:45;94190.84;;;19.96;100.00
6680;BME280;3376;42.664;23.346;2022-08-16T01:35:15;94171.97;;;19.82;100.00
6680;BME280;3376;42.664;23.346;2022-08-16T01:37:48;94185.13;;;19.82;100.00
6680;BME280;3376;42.664;23.346;2022-08-16T01:40:18;94179.47;;;19.74;100.00
6680;BME280;3376;42.664;23.346;2022-08-16T01:42:47;94187.44;;;19.62;100.00
6680;BME280;3376;42.664;23.346;2022-08-16T01:45:15;94189.34;;;19.67;100.00
6680;BME280;3376;42.664;23.346;2022-08-16T01:47:43;94182.50;;;19.66;100.00
6680;BME280;3376;42.664;23.346;2022-08-16T01:50:11;94168.16;;;19.57;100.00
6680;BME280;3376;42.664;23.346;2022-08-16T01:52:38;94161.88;;;19.58;100.00
6680;BME280;3376;42.664;23.346;2022-08-16T01:55:06;94201.84;;;19.76;100.00
6680;BME280;3376;42.664;23.346;2022-08-16T01:57:35;94191.31;;;19.76;100.00
6680;BME280;3376;42.664;23.346;2022-08-16T02:00:04;94194.03;;;19.81;100.00
6680;BME280;3376;42.664;23.346;2022-08-16T02:02:32;94176.38;;;19.77;100.00
6680;BME280;3376;42.664;23.346;2022-08-16T02:04:59;94191.97;;;19.83;100.00
6680;BME280;3376;42.664;23.346;2022-08-16T02:07:26;94201.47;;;19.84;100.00
6680;BME280;3376;42.664;23.346;2022-08-16T02:09:53;94205.91;;;19.84;100.00
6680;BME280;3376;42.664;23.346;2022-08-16T02:12:20;94216.13;;;19.80;100.00
6680;BME280;3376;42.664;23.346;2022-08-16T02:14:48;94197.41;;;19.60;100.00
6680;BME280;3376;42.664;23.346;2022-08-16T02:17:15;94213.97;;;19.77;100.00
6680;BME280;3376;42.664;23.346;2022-08-16T02:19:43;94227.09;;;19.94;100.00
6680;BME280;3376;42.664;23.346;2022-08-16T02:22:15;94242.47;;;20.02;100.00
6680;BME280;3376;42.664;23.346;2022-08-16T02:24:43;94249.59;;;20.02;100.00
6680;BME280;3376;42.664;23.346;2022-08-16T02:27:10;94247.25;;;19.88;100.00
6680;BME280;3376;42.664;23.346;2022-08-16T02:29:38;94276.03;;;19.95;100.00
6680;BME280;3376;42.664;23.346;2022-08-16T02:32:07;94245.75;;;19.92;100.00
6680;BME280;3376;42.664;23.346;2022-08-16T02:34:34;94275.09;;;20.18;100.00
6680;BME280;3376;42.664;23.346;2022-08-16T02:37:02;94251.16;;;20.03;100.00
6680;BME280;3376;42.664;23.346;2022-08-16T02:39:29;94234.63;;;20.19;100.00
6680;BME280;3376;42.664;23.346;2022-08-16T02:41:56;94283.59;;;20.58;100.00
6680;BME280;3376;42.664;23.346;2022-08-16T02:44:23;94267.25;;;20.56;100.00
6680;BME280;3376;42.664;23.346;2022-08-16T02:46:50;94268.75;;;20.52;100.00
6680;BME280;3376;42.664;23.346;2022-08-16T02:49:19;94268.69;;;20.47;100.00
6680;BME280;3376;42.664;23.346;2022-08-16T02:51:46;94255.06;;;20.33;100.00
6680;BME280;3376;42.664;23.346;2022-08-16T02:54:13;94233.97;;;20.12;100.00
6680;BME280;3376;42.664;23.346;2022-08-16T02:56:40;94263.63;;;20.24;100.00
6680;BME280;3376;42.664;23.346;2022-08-16T02:59:07;94254.84;;;20.18;100.00
6680;BME280;3376;42.664;23.346;2022-08-16T03:01:37;94251.88;;;20.15;100.00
6680;BME280;3376;42.664;23.346;2022-08-16T03:04:06;94256.69;;;20.18;100.00
6680;BME280;3376;42.664;23.346;2022-08-16T03:06:34;94250.47;;;20.07;100.00
6680;BME280;3376;42.664;23.346;2022-08-16T03:09:02;94249.34;;;20.03;100.00
6680;BME280;3376;42.664;23.346;2022-08-16T03:11:29;94227.59;;;19.91;100.00
6680;BME280;3376;42.664;23.346;2022-08-16T03:13:57;94226.16;;;19.83;100.00
6680;BME280;3376;42.664;23.346;2022-08-16T03:16:25;94231.31;;;19.78;100.00
6680;BME280;3376;42.664;23.346;2022-08-16T03:18:53;94195.16;;;19.52;100.00
6680;BME280;3376;42.664;23.346;2022-08-16T03:21:20;94051.53;;;18.63;100.00
6680;BME280;3376;42.664;23.346;2022-08-16T03:23:49;94218.09;;;19.73;100.00
6680;BME280;3376;42.664;23.346;2022-08-16T03:26:16;94216.53;;;19.72;100.00
6680;BME280;3376;42.664;23.346;2022-08-16T03:28:43;94217.59;;;19.43;100.00
6680;BME280;3376;42.664;23.346;2022-08-16T03:31:10;94177.72;;;19.18;100.00
6680;BME280;3376;42.664;23.346;2022-08-16T03:33:37;94223.44;;;19.45;100.00
6680;BME280;3376;42.664;23.346;2022-08-16T03:36:04;94078.97;;;18.56;100.00
6680;BME280;3376;42.664;23.346;2022-08-16T03:38:32;94220.16;;;19.55;100.00
6680;BME280;3376;42.664;23.346;2022-08-16T03:41:01;94231.31;;;19.62;100.00
6680;BME280;3376;42.664;23.346;2022-08-16T03:43:30;94237.84;;;19.59;100.00
6680;BME280;3376;42.664;23.346;2022-08-16T03:45:57;94238.97;;;19.63;100.00
6680;BME280;3376;42.664;23.346;2022-08-16T03:48:28;94247.00;;;19.57;100.00
6680;BME280;3376;42.664;23.346;2022-08-16T03:50:57;94232.56;;;19.43;100.00
6680;BME280;3376;42.664;23.346;2022-08-16T03:53:24;94228.97;;;19.49;100.00
6680;BME280;3376;42.664;23.346;2022-08-16T03:55:50;94228.69;;;19.45;100.00
6680;BME280;3376;42.664;23.346;2022-08-16T03:58:19;94218.16;;;19.45;100.00
6680;BME280;3376;42.664;23.346;2022-08-16T04:00:46;94219.84;;;19.51;100.00
6680;BME280;3376;42.664;23.346;2022-08-16T04:03:13;94218.41;;;19.60;100.00
6680;BME280;3376;42.664;23.346;2022-08-16T04:05:44;94224.16;;;19.57;100.00
6680;BME280;3376;42.664;23.346;2022-08-16T04:08:12;94223.34;;;19.57;100.00
6680;BME280;3376;42.664;23.346;2022-08-16T04:10:39;94219.75;;;19.63;100.00
6680;BME280;3376;42.664;23.346;2022-08-16T04:13:06;94217.63;;;19.76;100.00
6680;BME280;3376;42.664;23.346;2022-08-16T04:15:34;94221.78;;;19.89;100.00
6680;BME280;3376;42.664;23.346;2022-08-16T04:18:03;94227.13;;;19.77;100.00
6680;BME280;3376;42.664;23.346;2022-08-16T04:20:30;94089.34;;;18.79;100.00
6680;BME280;3376;42.664;23.346;2022-08-16T04:22:57;94217.38;;;19.61;100.00
6680;BME280;3376;42.664;23.346;2022-08-16T04:25:24;94222.78;;;19.71;100.00
6680;BME280;3376;42.664;23.346;2022-08-16T04:27:51;94213.31;;;19.70;100.00
6680;BME280;3376;42.664;23.346;2022-08-16T04:30:19;94117.06;;;19.03;100.00
6680;BME280;3376;42.664;23.346;2022-08-16T04:32:48;94222.56;;;19.89;100.00
6680;BME280;3376;42.664;23.346;2022-08-16T04:35:16;94231.03;;;19.92;100.00
6680;BME280;3376;42.664;23.346;2022-08-16T04:37:43;94223.22;;;19.97;100.00
6680;BME280;3376;42.664;23.346;2022-08-16T04:40:11;94212.84;;;20.07;100.00
6680;BME280;3376;42.664;23.346;2022-08-16T04:42:39;94223.81;;;20.37;100.00
6680;BME280;3376;42.664;23.346;2022-08-16T04:45:08;94223.47;;;20.50;100.00
6680;BME280;3376;42.664;23.346;2022-08-16T04:47:36;94221.47;;;20.57;100.00
6680;BME280;3376;42.664;23.346;2022-08-16T04:50:06;94202.91;;;20.47;100.00
6680;BME280;3376;42.664;23.346;2022-08-16T04:52:34;94210.00;;;20.46;100.00
6680;BME280;3376;42.664;23.346;2022-08-16T04:55:04;94227.50;;;20.36;100.00
6680;BME280;3376;42.664;23.346;2022-08-16T04:57:31;94223.69;;;20.27;100.00
6680;BME280;3376;42.664;23.346;2022-08-16T04:59:58;94233.63;;;20.25;100.00
6680;BME280;3376;42.664;23.346;2022-08-16T05:02:25;94235.50;;;20.24;100.00
6680;BME280;3376;42.664;23.346;2022-08-16T05:04:52;94233.72;;;20.30;100.00
6680;BME280;3376;42.664;23.346;2022-08-16T05:07:20;94246.53;;;20.43;100.00
6680;BME280;3376;42.664;23.346;2022-08-16T05:09:47;94249.31;;;20.53;100.00
6680;BME280;3376;42.664;23.346;2022-08-16T05:12:14;94256.22;;;20.59;100.00
6680;BME280;3376;42.664;23.346;2022-08-16T05:14:41;94253.06;;;20.78;100.00
6680;BME280;3376;42.664;23.346;2022-08-16T05:17:07;94246.66;;;20.91;100.00
6680;BME280;3376;42.664;23.346;2022-08-16T05:19:34;94249.50;;;21.06;100.00
6680;BME280;3376;42.664;23.346;2022-08-16T05:22:01;94116.38;;;20.29;100.00
6680;BME280;3376;42.664;23.346;2022-08-16T05:24:29;94258.16;;;21.28;100.00
6680;BME280;3376;42.664;23.346;2022-08-16T05:26:56;94260.44;;;21.46;100.00
6680;BME280;3376;42.664;23.346;2022-08-16T05:29:23;94265.03;;;21.56;100.00
6680;BME280;3376;42.664;23.346;2022-08-16T05:31:50;94224.34;;;21.47;100.00
6680;BME280;3376;42.664;23.346;2022-08-16T05:34:17;94262.94;;;21.79;100.00
6680;BME280;3376;42.664;23.346;2022-08-16T05:36:46;94258.88;;;21.98;100.00
6680;BME280;3376;42.664;23.346;2022-08-16T05:39:14;94227.22;;;21.98;100.00
6680;BME280;3376;42.664;23.346;2022-08-16T05:41:42;94250.31;;;22.18;100.00
6680;BME280;3376;42.664;23.346;2022-08-16T05:44:09;94239.81;;;22.23;100.00
6680;BME280;3376;42.664;23.346;2022-08-16T05:46:36;94132.44;;;21.55;100.00
6680;BME280;3376;42.664;23.346;2022-08-16T05:49:03;94261.34;;;22.47;100.00
6680;BME280;3376;42.664;23.346;2022-08-16T05:51:30;94265.94;;;22.61;100.00
6680;BME280;3376;42.664;23.346;2022-08-16T05:53:56;94251.78;;;22.77;100.00
6680;BME280;3376;42.664;23.346;2022-08-16T05:56:23;94258.19;;;22.91;100.00
6680;BME280;3376;42.664;23.346;2022-08-16T05:58:51;94259.03;;;23.02;100.00
6680;BME280;3376;42.664;23.346;2022-08-16T06:01:18;94252.44;;;23.09;100.00
6680;BME280;3376;42.664;23.346;2022-08-16T06:03:45;94255.97;;;23.30;100.00
6680;BME280;3376;42.664;23.346;2022-08-16T06:06:12;94256.28;;;23.44;99.79
6680;BME280;3376;42.664;23.346;2022-08-16T06:08:39;94261.59;;;23.54;97.48
6680;BME280;3376;42.664;23.346;2022-08-16T06:11:07;94258.19;;;23.58;96.09
6680;BME280;3376;42.664;23.346;2022-08-16T06:13:34;94264.75;;;23.56;97.15
6680;BME280;3376;42.664;23.346;2022-08-16T06:16:04;94254.47;;;23.59;96.87
6680;BME280;3376;42.664;23.346;2022-08-16T06:18:31;94262.41;;;23.79;96.25
6680;BME280;3376;42.664;23.346;2022-08-16T06:20:58;94267.47;;;23.91;95.79
6680;BME280;3376;42.664;23.346;2022-08-16T06:23:25;94249.72;;;23.91;95.61
6680;BME280;3376;42.664;23.346;2022-08-16T06:25:52;94263.03;;;24.01;95.63
6680;BME280;3376;42.664;23.346;2022-08-16T06:28:19;94261.38;;;23.90;95.81
6680;BME280;3376;42.664;23.346;2022-08-16T06:30:46;94257.19;;;24.09;94.58
6680;BME280;3376;42.664;23.346;2022-08-16T06:33:16;94266.47;;;24.37;92.15
6680;BME280;3376;42.664;23.346;2022-08-16T06:35:43;94261.41;;;24.51;91.48
6680;BME280;3376;42.664;23.346;2022-08-16T06:38:11;94237.03;;;24.49;91.56
6680;BME280;3376;42.664;23.346;2022-08-16T06:40:38;94252.91;;;24.69;89.13
6680;BME280;3376;42.664;23.346;2022-08-16T06:43:05;94258.19;;;24.64;89.11
6680;BME280;3376;42.664;23.346;2022-08-16T06:45:32;94260.31;;;24.77;86.82
6680;BME280;3376;42.664;23.346;2022-08-16T06:48:02;94255.00;;;24.82;85.90
6680;BME280;3376;42.664;23.346;2022-08-16T06:50:31;94244.13;;;24.88;86.77
6680;BME280;3376;42.664;23.346;2022-08-16T06:52:58;94245.72;;;24.84;87.07
6680;BME280;3376;42.664;23.346;2022-08-16T06:55:26;94247.03;;;24.92;86.76
6680;BME280;3376;42.664;23.346;2022-08-16T06:57:53;94258.34;;;25.12;84.72
6680;BME280;3376;42.664;23.346;2022-08-16T07:00:21;94250.91;;;25.19;82.43
6680;BME280;3376;42.664;23.346;2022-08-16T07:02:49;94240.03;;;25.21;83.04
6680;BME280;3376;42.664;23.346;2022-08-16T07:05:17;94230.94;;;25.37;83.80
6680;BME280;3376;42.664;23.346;2022-08-16T07:07:47;94210.97;;;25.49;82.32
6680;BME280;3376;42.664;23.346;2022-08-16T07:10:17;94224.88;;;25.75;80.19
6680;BME280;3376;42.664;23.346;2022-08-16T07:12:44;94242.06;;;26.21;77.90
6680;BME280;3376;42.664;23.346;2022-08-16T07:15:15;94232.28;;;26.17;77.93
6680;BME280;3376;42.664;23.346;2022-08-16T07:17:42;94227.97;;;26.21;76.80
6680;BME280;3376;42.664;23.346;2022-08-16T07:20:11;94232.34;;;26.40;76.24
6680;BME280;3376;42.664;23.346;2022-08-16T07:22:39;94236.69;;;26.60;76.00
6680;BME280;3376;42.664;23.346;2022-08-16T07:25:10;94227.38;;;26.57;76.01
6680;BME280;3376;42.664;23.346;2022-08-16T07:27:38;94224.69;;;26.62;74.99
6680;BME280;3376;42.664;23.346;2022-08-16T07:30:07;94228.81;;;26.79;74.12
6680;BME280;3376;42.664;23.346;2022-08-16T07:32:34;94199.03;;;26.77;74.96
6680;BME280;3376;42.664;23.346;2022-08-16T07:35:02;94223.25;;;26.99;73.62
6680;BME280;3376;42.664;23.346;2022-08-16T07:37:28;94226.69;;;27.23;73.01
6680;BME280;3376;42.664;23.346;2022-08-16T07:39:55;94218.59;;;27.33;72.24
6680;BME280;3376;42.664;23.346;2022-08-16T07:42:24;94219.19;;;27.48;70.48
6680;BME280;3376;42.664;23.346;2022-08-16T07:44:51;94216.97;;;27.55;68.38
6680;BME280;3376;42.664;23.346;2022-08-16T07:47:18;94230.25;;;27.37;69.60
6680;BME280;3376;42.664;23.346;2022-08-16T07:49:45;94221.69;;;27.58;69.39
6680;BME280;3376;42.664;23.346;2022-08-16T07:52:11;94230.47;;;27.77;68.69
6680;BME280;3376;42.664;23.346;2022-08-16T07:54:38;94220.94;;;27.95;68.00
6680;BME280;3376;42.664;23.346;2022-08-16T07:57:05;94211.22;;;28.04;67.49
6680;BME280;3376;42.664;23.346;2022-08-16T07:59:33;94232.00;;;28.34;65.70
6680;BME280;3376;42.664;23.346;2022-08-16T08:02:01;94234.16;;;28.51;65.40
6680;BME280;3376;42.664;23.346;2022-08-16T08:04:28;94234.00;;;28.74;63.89
6680;BME280;3376;42.664;23.346;2022-08-16T08:06:57;94238.56;;;28.87;62.32
6680;BME280;3376;42.664;23.346;2022-08-16T08:09:24;94235.59;;;28.89;62.80
6680;BME280;3376;42.664;23.346;2022-08-16T08:11:51;94233.00;;;28.84;62.56
6680;BME280;3376;42.664;23.346;2022-08-16T08:14:18;94230.84;;;28.86;62.81
6680;BME280;3376;42.664;23.346;2022-08-16T08:16:47;94219.88;;;29.01;62.76
6680;BME280;3376;42.664;23.346;2022-08-16T08:19:14;94239.38;;;29.29;62.69
6680;BME280;3376;42.664;23.346;2022-08-16T08:21:41;94237.59;;;29.38;61.25
6680;BME280;3376;42.664;23.346;2022-08-16T08:24:09;94236.28;;;29.49;59.98
6680;BME280;3376;42.664;23.346;2022-08-16T08:26:36;94224.28;;;29.73;59.81
6680;BME280;3376;42.664;23.346;2022-08-16T08:29:03;94232.97;;;29.79;58.67
6680;BME280;3376;42.664;23.346;2022-08-16T08:31:31;94228.97;;;29.90;57.90
6680;BME280;3376;42.664;23.346;2022-08-16T08:34:02;94222.19;;;30.06;56.95
6680;BME280;3376;42.664;23.346;2022-08-16T08:36:31;94228.66;;;30.27;57.25
6680;BME280;3376;42.664;23.346;2022-08-16T08:38:58;94229.06;;;30.43;55.86
6680;BME280;3376;42.664;23.346;2022-08-16T08:41:25;94226.97;;;30.62;55.18
6680;BME280;3376;42.664;23.346;2022-08-16T08:43:53;94234.06;;;30.58;55.59
6680;BME280;3376;42.664;23.346;2022-08-16T08:46:21;94230.34;;;30.76;53.91
6680;BME280;3376;42.664;23.346;2022-08-16T08:48:48;94234.84;;;30.89;52.46
6680;BME280;3376;42.664;23.346;2022-08-16T08:51:16;94222.13;;;30.94;50.09
6680;BME280;3376;42.664;23.346;2022-08-16T08:53:43;94230.63;;;30.96;50.40
6680;BME280;3376;42.664;23.346;2022-08-16T08:56:11;94230.72;;;31.22;48.39
6680;BME280;3376;42.664;23.346;2022-08-16T08:58:38;94212.63;;;31.28;47.52
6680;BME280;3376;42.664;23.346;2022-08-16T09:01:06;94224.66;;;31.47;46.28
6680;BME280;3376;42.664;23.346;2022-08-16T09:03:33;94228.28;;;31.43;45.63
6680;BME280;3376;42.664;23.346;2022-08-16T09:06:00;94208.50;;;31.22;44.79
6680;BME280;3376;42.664;23.346;2022-08-16T09:08:29;94211.50;;;31.20;45.92
6680;BME280;3376;42.664;23.346;2022-08-16T09:10:57;94211.34;;;31.25;45.05
6680;BME280;3376;42.664;23.346;2022-08-16T09:13:25;94208.13;;;31.37;46.11
6680;BME280;3376;42.664;23.346;2022-08-16T09:15:52;94221.72;;;31.66;44.53
6680;BME280;3376;42.664;23.346;2022-08-16T09:18:19;94216.50;;;31.52;43.97
6680;BME280;3376;42.664;23.346;2022-08-16T09:20:47;94230.84;;;31.65;44.30
6680;BME280;3376;42.664;23.346;2022-08-16T09:23:16;94220.41;;;31.38;43.72
6680;BME280;3376;42.664;23.346;2022-08-16T09:25:45;94234.03;;;31.19;45.33
6680;BME280;3376;42.664;23.346;2022-08-16T09:28:12;94240.88;;;31.03;45.02
6680;BME280;3376;42.664;23.346;2022-08-16T09:30:40;94221.75;;;31.27;44.72
6680;BME280;3376;42.664;23.346;2022-08-16T09:33:07;94228.06;;;31.31;44.50
6680;BME280;3376;42.664;23.346;2022-08-16T09:35:35;94208.50;;;31.22;44.76
6680;BME280;3376;42.664;23.346;2022-08-16T09:38:03;94215.47;;;30.83;44.07
6680;BME280;3376;42.664;23.346;2022-08-16T09:40:30;94219.41;;;30.86;44.79
6680;BME280;3376;42.664;23.346;2022-08-16T09:42:58;94222.88;;;30.86;45.04
6680;BME280;3376;42.664;23.346;2022-08-16T09:45:26;94190.22;;;30.76;44.73
6680;BME280;3376;42.664;23.346;2022-08-16T09:47:54;94219.34;;;31.17;44.23
6680;BME280;3376;42.664;23.346;2022-08-16T09:50:21;94215.75;;;31.21;43.87
6680;BME280;3376;42.664;23.346;2022-08-16T09:52:49;94217.34;;;31.22;45.06
6680;BME280;3376;42.664;23.346;2022-08-16T09:55:16;94220.66;;;31.28;43.43
6680;BME280;3376;42.664;23.346;2022-08-16T09:57:43;94222.94;;;31.43;43.19
6680;BME280;3376;42.664;23.346;2022-08-16T10:00:12;94210.16;;;31.40;42.09
6680;BME280;3376;42.664;23.346;2022-08-16T10:02:39;94218.69;;;31.42;41.38
6680;BME280;3376;42.664;23.346;2022-08-16T10:05:07;94206.75;;;31.08;42.93
6680;BME280;3376;42.664;23.346;2022-08-16T10:07:36;94226.28;;;30.78;43.14
6680;BME280;3376;42.664;23.346;2022-08-16T10:10:03;94208.16;;;30.45;43.50
6680;BME280;3376;42.664;23.346;2022-08-16T10:12:30;94228.09;;;30.39;44.42
6680;BME280;3376;42.664;23.346;2022-08-16T10:15:19;94221.66;;;30.18;44.69
6680;BME280;3376;42.664;23.346;2022-08-16T10:17:49;94222.53;;;30.27;44.34
6680;BME280;3376;42.664;23.346;2022-08-16T10:20:16;94220.28;;;30.42;44.23
6680;BME280;3376;42.664;23.346;2022-08-16T10:22:43;94211.91;;;30.66;44.29
6680;BME280;3376;42.664;23.346;2022-08-16T10:25:10;94207.97;;;30.72;43.98
6680;BME280;3376;42.664;23.346;2022-08-16T10:27:37;94193.47;;;30.64;44.02
6680;BME280;3376;42.664;23.346;2022-08-16T10:30:06;94210.50;;;30.77;43.41
6680;BME280;3376;42.664;23.346;2022-08-16T10:32:34;94216.97;;;30.76;43.63
6680;BME280;3376;42.664;23.346;2022-08-16T10:35:02;94205.94;;;31.08;43.25
6680;BME280;3376;42.664;23.346;2022-08-16T10:37:29;94214.38;;;31.32;42.59
6680;BME280;3376;42.664;23.346;2022-08-16T10:39:56;94212.56;;;31.67;42.57
6680;BME280;3376;42.664;23.346;2022-08-16T10:42:23;94224.75;;;31.98;41.06
6680;BME280;3376;42.664;23.346;2022-08-16T10:44:49;94217.16;;;31.92;41.07
6680;BME280;3376;42.664;23.346;2022-08-16T10:47:16;94212.28;;;31.94;40.57
6680;BME280;3376;42.664;23.346;2022-08-16T10:49:44;94211.78;;;31.75;41.24
6680;BME280;3376;42.664;23.346;2022-08-16T10:52:11;94217.75;;;31.55;41.51
6680;BME280;3376;42.664;23.346;2022-08-16T10:54:38;94219.03;;;31.18;42.72
6680;BME280;3376;42.664;23.346;2022-08-16T10:57:05;94227.31;;;30.69;46.85
6680;BME280;3376;42.664;23.346;2022-08-16T10:59:33;94136.94;;;29.74;48.18
6680;BME280;3376;42.664;23.346;2022-08-16T11:02:00;94208.75;;;30.20;50.01
6680;BME280;3376;42.664;23.346;2022-08-16T11:04:28;94215.50;;;30.39;49.68
6680;BME280;3376;42.664;23.346;2022-08-16T11:06:56;94217.47;;;30.78;47.89
6680;BME280;3376;42.664;23.346;2022-08-16T11:09:23;94218.63;;;31.25;45.25
6680;BME280;3376;42.664;23.346;2022-08-16T11:11:50;94221.69;;;31.49;44.24
6680;BME280;3376;42.664;23.346;2022-08-16T11:14:17;94222.81;;;31.73;41.44
6680;BME280;3376;42.664;23.346;2022-08-16T11:16:44;94212.41;;;31.72;40.70
6680;BME280;3376;42.664;23.346;2022-08-16T11:19:11;94211.50;;;32.02;39.05
6680;BME280;3376;42.664;23.346;2022-08-16T11:21:39;94206.44;;;32.09;38.86
6680;BME280;3376;42.664;23.346;2022-08-16T11:24:08;94199.00;;;31.80;39.24
6680;BME280;3376;42.664;23.346;2022-08-16T11:26:34;94208.31;;;31.66;40.30
6680;BME280;3376;42.664;23.346;2022-08-16T11:29:01;94206.56;;;31.70;39.60
6680;BME280;3376;42.664;23.346;2022-08-16T11:31:28;94209.09;;;31.83;40.17
6680;BME280;3376;42.664;23.346;2022-08-16T11:33:55;94173.00;;;31.64;39.99
6680;BME280;3376;42.664;23.346;2022-08-16T11:36:22;94196.34;;;31.80;39.96
6680;BME280;3376;42.664;23.346;2022-08-16T11:38:49;94201.84;;;31.84;39.64
6680;BME280;3376;42.664;23.346;2022-08-16T11:41:17;94196.81;;;31.57;41.14
6680;BME280;3376;42.664;23.346;2022-08-16T11:43:44;94192.66;;;31.34;42.31
6680;BME280;3376;42.664;23.346;2022-08-16T11:46:12;94194.63;;;31.11;43.74
6680;BME280;3376;42.664;23.346;2022-08-16T11:48:42;94200.72;;;30.94;50.00
6680;BME280;3376;42.664;23.346;2022-08-16T11:51:10;94201.59;;;30.51;54.07
6680;BME280;3376;42.664;23.346;2022-08-16T11:53:38;94213.81;;;29.99;53.01
6680;BME280;3376;42.664;23.346;2022-08-16T11:56:05;94230.75;;;29.05;57.24
6680;BME280;3376;42.664;23.346;2022-08-16T11:58:33;94218.91;;;27.87;59.87
6680;BME280;3376;42.664;23.346;2022-08-16T12:01:04;94201.72;;;27.19;65.54
6680;BME280;3376;42.664;23.346;2022-08-16T12:03:32;94210.03;;;27.12;64.36
6680;BME280;3376;42.664;23.346;2022-08-16T12:06:01;94214.38;;;27.32;65.39
6680;BME280;3376;42.664;23.346;2022-08-16T12:08:29;94217.31;;;27.30;61.81
6680;BME280;3376;42.664;23.346;2022-08-16T12:10:56;94205.88;;;27.48;60.87
6680;BME280;3376;42.664;23.346;2022-08-16T12:13:24;94209.31;;;27.86;58.46
6680;BME280;3376;42.664;23.346;2022-08-16T12:15:53;94193.59;;;28.35;56.21
6680;BME280;3376;42.664;23.346;2022-08-16T12:18:20;94188.66;;;29.02;51.97
6680;BME280;3376;42.664;23.346;2022-08-16T12:20:48;94177.59;;;29.57;48.16
6680;BME280;3376;42.664;23.346;2022-08-16T12:23:15;94164.28;;;30.01;48.13
6680;BME280;3376;42.664;23.346;2022-08-16T12:25:42;94165.41;;;30.53;45.20
6680;BME280;3376;42.664;23.346;2022-08-16T12:28:10;94136.06;;;30.70;45.83
6680;BME280;3376;42.664;23.346;2022-08-16T12:30:39;94164.75;;;31.26;46.09
6680;BME280;3376;42.664;23.346;2022-08-16T12:33:10;94169.63;;;31.33;48.91
6680;BME280;3376;42.664;23.346;2022-08-16T12:35:39;94159.06;;;31.19;54.70
6680;BME280;3376;42.664;23.346;2022-08-16T12:38:06;94134.84;;;30.76;53.78
6680;BME280;3376;42.664;23.346;2022-08-16T12:40:36;94166.47;;;30.74;55.02
6680;BME280;3376;42.664;23.346;2022-08-16T12:43:05;94158.09;;;30.67;55.27
6680;BME280;3376;42.664;23.346;2022-08-16T12:45:35;94168.22;;;30.48;56.60
6680;BME280;3376;42.664;23.346;2022-08-16T12:48:03;94162.59;;;30.28;57.30
6680;BME280;3376;42.664;23.346;2022-08-16T12:50:49;94122.47;;;29.97;61.18
6680;BME280;3376;42.664;23.346;2022-08-16T12:53:16;94154.75;;;30.31;54.22
6680;BME280;3376;42.664;23.346;2022-08-16T12:55:45;94145.78;;;30.27;60.88
6680;BME280;3376;42.664;23.346;2022-08-16T12:58:12;94142.56;;;30.17;66.57
6680;BME280;3376;42.664;23.346;2022-08-16T13:00:40;94144.25;;;30.13;67.91
6680;BME280;3376;42.664;23.346;2022-08-16T13:03:08;94142.53;;;29.86;69.31
6680;BME280;3376;42.664;23.346;2022-08-16T13:05:37;94140.19;;;29.93;69.99
6680;BME280;3376;42.664;23.346;2022-08-16T13:08:08;94131.22;;;29.89;71.15